sensor_id;sensor_type;location;lat;lon;timestamp;P1;durP1;ratioP1;P2;durP2;ratioP2
20073;SDS011;10197;54.282;10.078;2024-02-21T00:01:48;48.47;;;24.55;;
20073;SDS011;10197;54.282;10.078;2024-02-21T00:04:15;52.67;;;25.20;;
20073;SDS011;10197;54.282;10.078;2024-02-21T00:06:42;49.10;;;23.83;;
20073;SDS011;10197;54.282;10.078;2024-02-21T00:09:08;60.17;;;25.58;;
20073;SDS011;10197;54.282;10.078;2024-02-21T00:11:35;51.88;;;27.80;;
20073;SDS011;10197;54.282;10.078;2024-02-21T00:14:04;55.22;;;26.52;;
20073;SDS011;10197;54.282;10.078;2024-02-21T00:16:30;57.42;;;27.33;;
20073;SDS011;10197;54.282;10.078;2024-02-21T00:18:57;57.20;;;26.90;;
20073;SDS011;10197;54.282;10.078;2024-02-21T00:21:24;58.70;;;26.55;;
20073;SDS011;10197;54.282;10.078;2024-02-21T00:23:51;55.92;;;27.02;;
20073;SDS011;10197;54.282;10.078;2024-02-21T00:26:17;56.72;;;25.77;;
20073;SDS011;10197;54.282;10.078;2024-02-21T00:28:44;62.92;;;26.20;;
20073;SDS011;10197;54.282;10.078;2024-02-21T00:31:13;54.63;;;26.67;;
20073;SDS011;10197;54.282;10.078;2024-02-21T00:33:39;52.10;;;25.70;;
20073;SDS011;10197;54.282;10.078;2024-02-21T00:36:06;51.75;;;24.65;;
20073;SDS011;10197;54.282;10.078;2024-02-21T00:38:33;53.95;;;24.17;;
20073;SDS011;10197;54.282;10.078;2024-02-21T00:41:00;52.50;;;25.33;;
20073;SDS011;10197;54.282;10.078;2024-02-21T00:43:26;47.40;;;25.45;;
20073;SDS011;10197;54.282;10.078;2024-02-21T00:45:53;49.58;;;24.13;;
20073;SDS011;10197;54.282;10.078;2024-02-21T00:48:21;45.63;;;24.50;;
20073;SDS011;10197;54.282;10.078;2024-02-21T00:50:51;49.72;;;24.38;;
20073;SDS011;10197;54.282;10.078;2024-02-21T00:53:18;46.72;;;24.75;;
20073;SDS011;10197;54.282;10.078;2024-02-21T00:55:45;48.47;;;25.30;;
20073;SDS011;10197;54.282;10.078;2024-02-21T00:58:12;51.08;;;25.17;;
20073;SDS011;10197;54.282;10.078;2024-02-21T01:00:38;46.72;;;24.25;;
20073;SDS011;10197;54.282;10.078;2024-02-21T01:03:05;45.13;;;24.27;;
20073;SDS011;10197;54.282;10.078;2024-02-21T01:05:33;46.67;;;25.05;;
20073;SDS011;10197;54.282;10.078;2024-02-21T01:08:00;47.28;;;26.58;;
20073;SDS011;10197;54.282;10.078;2024-02-21T01:10:26;46.78;;;24.70;;
20073;SDS011;10197;54.282;10.078;2024-02-21T01:12:53;51.60;;;28.73;;
20073;SDS011;10197;54.282;10.078;2024-02-21T01:15:20;43.40;;;28.33;;
20073;SDS011;10197;54.282;10.078;2024-02-21T01:17:46;51.25;;;27.73;;
20073;SDS011;10197;54.282;10.078;2024-02-21T01:20:15;53.42;;;28.17;;
20073;SDS011;10197;54.282;10.078;2024-02-21T01:22:44;49.00;;;27.88;;
20073;SDS011;10197;54.282;10.078;2024-02-21T01:25:10;47.60;;;28.02;;
20073;SDS011;10197;54.282;10.078;2024-02-21T01:27:37;42.65;;;26.23;;
20073;SDS011;10197;54.282;10.078;2024-02-21T01:30:04;39.38;;;22.65;;
20073;SDS011;10197;54.282;10.078;2024-02-21T01:32:32;46.80;;;26.02;;
20073;SDS011;10197;54.282;10.078;2024-02-21T01:34:59;44.63;;;25.73;;
20073;SDS011;10197;54.282;10.078;2024-02-21T01:37:25;46.17;;;26.13;;
20073;SDS011;10197;54.282;10.078;2024-02-21T01:39:54;39.80;;;24.77;;
20073;SDS011;10197;54.282;10.078;2024-02-21T01:42:20;40.25;;;23.40;;
20073;SDS011;10197;54.282;10.078;2024-02-21T01:44:47;38.00;;;23.13;;
20073;SDS011;10197;54.282;10.078;2024-02-21T01:47:14;35.85;;;22.88;;
20073;SDS011;10197;54.282;10.078;2024-02-21T01:49:41;38.05;;;22.17;;
20073;SDS011;10197;54.282;10.078;2024-02-21T01:52:07;30.95;;;21.63;;
20073;SDS011;10197;54.282;10.078;2024-02-21T01:54:35;34.40;;;20.92;;
20073;SDS011;10197;54.282;10.078;2024-02-21T01:57:03;32.95;;;21.75;;
20073;SDS011;10197;54.282;10.078;2024-02-21T01:59:30;38.50;;;21.52;;
20073;SDS011;10197;54.282;10.078;2024-02-21T02:01:57;31.58;;;21.25;;
20073;SDS011;10197;54.282;10.078;2024-02-21T02:04:24;30.33;;;19.30;;
20073;SDS011;10197;54.282;10.078;2024-02-21T02:06:52;35.42;;;20.35;;
20073;SDS011;10197;54.282;10.078;2024-02-21T02:16:55;28.13;;;18.88;;
20073;SDS011;10197;54.282;10.078;2024-02-21T02:19:22;30.88;;;19.17;;
20073;SDS011;10197;54.282;10.078;2024-02-21T02:21:49;31.00;;;18.38;;
20073;SDS011;10197;54.282;10.078;2024-02-21T02:24:22;30.30;;;18.75;;
20073;SDS011;10197;54.282;10.078;2024-02-21T02:26:50;30.58;;;20.50;;
20073;SDS011;10197;54.282;10.078;2024-02-21T02:29:17;29.15;;;19.60;;
20073;SDS011;10197;54.282;10.078;2024-02-21T02:31:44;33.17;;;19.08;;
20073;SDS011;10197;54.282;10.078;2024-02-21T02:34:11;30.38;;;19.80;;
20073;SDS011;10197;54.282;10.078;2024-02-21T02:36:38;29.30;;;19.52;;
20073;SDS011;10197;54.282;10.078;2024-02-21T02:39:04;24.67;;;19.02;;
20073;SDS011;10197;54.282;10.078;2024-02-21T02:41:35;33.03;;;19.55;;
20073;SDS011;10197;54.282;10.078;2024-02-21T02:44:02;25.35;;;17.38;;
20073;SDS011;10197;54.282;10.078;2024-02-21T02:46:29;26.10;;;17.52;;
20073;SDS011;10197;54.282;10.078;2024-02-21T02:48:56;19.08;;;16.08;;
20073;SDS011;10197;54.282;10.078;2024-02-21T02:51:22;21.98;;;15.27;;
20073;SDS011;10197;54.282;10.078;2024-02-21T02:53:49;22.00;;;15.80;;
20073;SDS011;10197;54.282;10.078;2024-02-21T02:56:15;20.25;;;14.43;;
20073;SDS011;10197;54.282;10.078;2024-02-21T02:58:44;20.38;;;15.20;;
20073;SDS011;10197;54.282;10.078;2024-02-21T03:01:11;19.83;;;13.65;;
20073;SDS011;10197;54.282;10.078;2024-02-21T03:03:38;17.50;;;11.88;;
20073;SDS011;10197;54.282;10.078;2024-02-21T03:06:05;15.48;;;11.77;;
20073;SDS011;10197;54.282;10.078;2024-02-21T03:08:32;17.73;;;12.35;;
20073;SDS011;10197;54.282;10.078;2024-02-21T03:10:59;13.10;;;11.63;;
20073;SDS011;10197;54.282;10.078;2024-02-21T03:13:26;17.27;;;10.05;;
20073;SDS011;10197;54.282;10.078;2024-02-21T03:15:54;14.70;;;10.48;;
20073;SDS011;10197;54.282;10.078;2024-02-21T03:18:20;12.88;;;9.45;;
20073;SDS011;10197;54.282;10.078;2024-02-21T03:20:49;12.38;;;8.30;;
20073;SDS011;10197;54.282;10.078;2024-02-21T03:23:15;9.18;;;7.38;;
20073;SDS011;10197;54.282;10.078;2024-02-21T03:25:42;8.93;;;7.07;;
20073;SDS011;10197;54.282;10.078;2024-02-21T03:28:09;6.70;;;5.82;;
20073;SDS011;10197;54.282;10.078;2024-02-21T03:30:35;6.97;;;6.10;;
20073;SDS011;10197;54.282;10.078;2024-02-21T03:33:04;7.93;;;6.47;;
20073;SDS011;10197;54.282;10.078;2024-02-21T03:35:31;7.20;;;6.53;;
20073;SDS011;10197;54.282;10.078;2024-02-21T03:37:57;6.40;;;5.80;;
20073;SDS011;10197;54.282;10.078;2024-02-21T03:40:24;6.13;;;5.53;;
20073;SDS011;10197;54.282;10.078;2024-02-21T03:42:51;6.22;;;5.28;;
20073;SDS011;10197;54.282;10.078;2024-02-21T03:45:17;5.63;;;5.10;;
20073;SDS011;10197;54.282;10.078;2024-02-21T03:47:44;5.43;;;5.03;;
20073;SDS011;10197;54.282;10.078;2024-02-21T03:50:13;6.43;;;5.07;;
20073;SDS011;10197;54.282;10.078;2024-02-21T03:52:39;7.60;;;6.22;;
20073;SDS011;10197;54.282;10.078;2024-02-21T03:55:06;4.78;;;4.00;;
20073;SDS011;10197;54.282;10.078;2024-02-21T03:57:33;4.30;;;3.90;;
20073;SDS011;10197;54.282;10.078;2024-02-21T04:00:00;8.18;;;5.32;;
20073;SDS011;10197;54.282;10.078;2024-02-21T04:02:32;4.18;;;3.78;;
20073;SDS011;10197;54.282;10.078;2024-02-21T04:05:00;5.20;;;3.90;;
20073;SDS011;10197;54.282;10.078;2024-02-21T04:07:28;6.10;;;4.30;;
20073;SDS011;10197;54.282;10.078;2024-02-21T04:09:55;6.95;;;3.88;;
20073;SDS011;10197;54.282;10.078;2024-02-21T04:12:21;6.30;;;5.00;;
20073;SDS011;10197;54.282;10.078;2024-02-21T04:14:48;9.10;;;4.18;;
20073;SDS011;10197;54.282;10.078;2024-02-21T04:17:15;9.63;;;4.68;;
20073;SDS011;10197;54.282;10.078;2024-02-21T04:19:42;12.45;;;4.45;;
20073;SDS011;10197;54.282;10.078;2024-02-21T04:22:09;9.90;;;5.72;;
20073;SDS011;10197;54.282;10.078;2024-02-21T04:24:37;12.50;;;6.00;;
20073;SDS011;10197;54.282;10.078;2024-02-21T04:27:04;9.63;;;4.80;;
20073;SDS011;10197;54.282;10.078;2024-02-21T04:29:30;9.75;;;4.70;;
20073;SDS011;10197;54.282;10.078;2024-02-21T04:31:58;15.23;;;4.90;;
20073;SDS011;10197;54.282;10.078;2024-02-21T04:34:25;10.27;;;5.60;;
20073;SDS011;10197;54.282;10.078;2024-02-21T04:36:51;14.27;;;5.72;;
20073;SDS011;10197;54.282;10.078;2024-02-21T04:39:18;13.32;;;5.20;;
20073;SDS011;10197;54.282;10.078;2024-02-21T04:41:46;16.42;;;5.25;;
20073;SDS011;10197;54.282;10.078;2024-02-21T04:44:14;13.55;;;5.97;;
20073;SDS011;10197;54.282;10.078;2024-02-21T04:46:41;21.25;;;6.18;;
20073;SDS011;10197;54.282;10.078;2024-02-21T04:49:08;12.13;;;6.68;;
20073;SDS011;10197;54.282;10.078;2024-02-21T04:51:35;14.57;;;5.70;;
20073;SDS011;10197;54.282;10.078;2024-02-21T04:54:01;15.10;;;5.57;;
20073;SDS011;10197;54.282;10.078;2024-02-21T04:56:28;14.95;;;5.88;;
20073;SDS011;10197;54.282;10.078;2024-02-21T04:58:57;16.02;;;6.25;;
20073;SDS011;10197;54.282;10.078;2024-02-21T05:01:23;14.23;;;6.15;;
20073;SDS011;10197;54.282;10.078;2024-02-21T05:03:50;16.77;;;6.45;;
20073;SDS011;10197;54.282;10.078;2024-02-21T05:06:17;17.88;;;7.20;;
20073;SDS011;10197;54.282;10.078;2024-02-21T05:08:44;23.73;;;7.95;;
20073;SDS011;10197;54.282;10.078;2024-02-21T05:11:10;21.05;;;6.78;;
20073;SDS011;10197;54.282;10.078;2024-02-21T05:13:37;12.95;;;6.00;;
20073;SDS011;10197;54.282;10.078;2024-02-21T05:16:06;21.92;;;7.97;;
20073;SDS011;10197;54.282;10.078;2024-02-21T05:18:32;18.13;;;7.32;;
20073;SDS011;10197;54.282;10.078;2024-02-21T05:20:59;15.35;;;6.85;;
20073;SDS011;10197;54.282;10.078;2024-02-21T05:23:26;16.50;;;6.30;;
20073;SDS011;10197;54.282;10.078;2024-02-21T05:25:53;20.38;;;7.00;;
20073;SDS011;10197;54.282;10.078;2024-02-21T05:28:19;27.98;;;6.90;;
20073;SDS011;10197;54.282;10.078;2024-02-21T05:30:46;24.52;;;7.70;;
20073;SDS011;10197;54.282;10.078;2024-02-21T05:33:14;26.38;;;8.30;;
20073;SDS011;10197;54.282;10.078;2024-02-21T05:35:46;23.15;;;6.78;;
20073;SDS011;10197;54.282;10.078;2024-02-21T05:38:12;24.15;;;7.95;;
20073;SDS011;10197;54.282;10.078;2024-02-21T05:40:39;20.20;;;6.10;;
20073;SDS011;10197;54.282;10.078;2024-02-21T05:43:07;19.33;;;7.00;;
20073;SDS011;10197;54.282;10.078;2024-02-21T05:45:34;25.05;;;7.28;;
20073;SDS011;10197;54.282;10.078;2024-02-21T05:48:01;24.38;;;7.53;;
20073;SDS011;10197;54.282;10.078;2024-02-21T05:50:29;23.98;;;7.18;;
20073;SDS011;10197;54.282;10.078;2024-02-21T05:52:57;28.42;;;7.68;;
20073;SDS011;10197;54.282;10.078;2024-02-21T05:55:24;26.20;;;7.50;;
20073;SDS011;10197;54.282;10.078;2024-02-21T05:57:53;20.23;;;7.13;;
20073;SDS011;10197;54.282;10.078;2024-02-21T06:00:20;26.50;;;7.15;;
20073;SDS011;10197;54.282;10.078;2024-02-21T06:02:46;23.35;;;7.22;;
20073;SDS011;10197;54.282;10.078;2024-02-21T06:05:13;22.55;;;7.00;;
20073;SDS011;10197;54.282;10.078;2024-02-21T06:07:41;25.65;;;7.25;;
20073;SDS011;10197;54.282;10.078;2024-02-21T06:10:08;29.67;;;8.07;;
20073;SDS011;10197;54.282;10.078;2024-02-21T06:12:35;25.00;;;8.50;;
20073;SDS011;10197;54.282;10.078;2024-02-21T06:15:02;22.40;;;6.50;;
20073;SDS011;10197;54.282;10.078;2024-02-21T06:17:29;24.02;;;7.40;;
20073;SDS011;10197;54.282;10.078;2024-02-21T06:19:55;26.17;;;7.15;;
20073;SDS011;10197;54.282;10.078;2024-02-21T06:22:22;28.65;;;6.78;;
20073;SDS011;10197;54.282;10.078;2024-02-21T06:24:50;24.10;;;7.88;;
20073;SDS011;10197;54.282;10.078;2024-02-21T06:27:19;24.23;;;7.55;;
20073;SDS011;10197;54.282;10.078;2024-02-21T06:29:46;31.70;;;6.82;;
20073;SDS011;10197;54.282;10.078;2024-02-21T06:32:12;28.98;;;7.78;;
20073;SDS011;10197;54.282;10.078;2024-02-21T06:34:39;24.00;;;6.75;;
20073;SDS011;10197;54.282;10.078;2024-02-21T06:37:06;25.45;;;7.15;;
20073;SDS011;10197;54.282;10.078;2024-02-21T06:39:32;22.77;;;6.95;;
20073;SDS011;10197;54.282;10.078;2024-02-21T06:42:01;25.58;;;7.78;;
20073;SDS011;10197;54.282;10.078;2024-02-21T06:44:28;29.15;;;7.20;;
20073;SDS011;10197;54.282;10.078;2024-02-21T06:46:54;23.77;;;7.03;;
20073;SDS011;10197;54.282;10.078;2024-02-21T06:49:20;23.70;;;6.38;;
20073;SDS011;10197;54.282;10.078;2024-02-21T06:51:47;28.05;;;7.10;;
20073;SDS011;10197;54.282;10.078;2024-02-21T06:54:13;25.73;;;6.53;;
20073;SDS011;10197;54.282;10.078;2024-02-21T06:56:40;19.35;;;6.63;;
20073;SDS011;10197;54.282;10.078;2024-02-21T06:59:08;34.03;;;6.88;;
20073;SDS011;10197;54.282;10.078;2024-02-21T07:01:35;27.50;;;6.28;;
20073;SDS011;10197;54.282;10.078;2024-02-21T07:04:02;22.33;;;6.55;;
20073;SDS011;10197;54.282;10.078;2024-02-21T07:06:28;25.70;;;6.55;;
20073;SDS011;10197;54.282;10.078;2024-02-21T07:08:56;25.10;;;5.55;;
20073;SDS011;10197;54.282;10.078;2024-02-21T07:11:23;23.08;;;6.78;;
20073;SDS011;10197;54.282;10.078;2024-02-21T07:13:49;24.25;;;6.68;;
20073;SDS011;10197;54.282;10.078;2024-02-21T07:16:17;21.40;;;5.85;;
20073;SDS011;10197;54.282;10.078;2024-02-21T07:18:44;32.83;;;6.72;;
20073;SDS011;10197;54.282;10.078;2024-02-21T07:21:11;28.35;;;7.00;;
20073;SDS011;10197;54.282;10.078;2024-02-21T07:23:40;24.02;;;6.15;;
20073;SDS011;10197;54.282;10.078;2024-02-21T07:26:07;31.05;;;6.75;;
20073;SDS011;10197;54.282;10.078;2024-02-21T07:28:34;26.25;;;6.35;;
20073;SDS011;10197;54.282;10.078;2024-02-21T07:31:02;29.10;;;6.45;;
20073;SDS011;10197;54.282;10.078;2024-02-21T07:33:31;22.17;;;5.88;;
20073;SDS011;10197;54.282;10.078;2024-02-21T07:36:00;29.17;;;6.32;;
20073;SDS011;10197;54.282;10.078;2024-02-21T07:38:27;29.80;;;7.03;;
20073;SDS011;10197;54.282;10.078;2024-02-21T07:40:54;29.38;;;7.55;;
20073;SDS011;10197;54.282;10.078;2024-02-21T07:43:21;25.08;;;6.50;;
20073;SDS011;10197;54.282;10.078;2024-02-21T07:45:48;28.30;;;6.97;;
20073;SDS011;10197;54.282;10.078;2024-02-21T07:48:14;30.23;;;6.38;;
20073;SDS011;10197;54.282;10.078;2024-02-21T07:50:44;29.48;;;6.70;;
20073;SDS011;10197;54.282;10.078;2024-02-21T07:53:10;30.38;;;6.13;;
20073;SDS011;10197;54.282;10.078;2024-02-21T07:55:38;30.77;;;6.63;;
20073;SDS011;10197;54.282;10.078;2024-02-21T07:58:05;38.50;;;8.13;;
20073;SDS011;10197;54.282;10.078;2024-02-21T08:00:32;35.72;;;7.68;;
20073;SDS011;10197;54.282;10.078;2024-02-21T08:02:59;27.67;;;6.45;;
20073;SDS011;10197;54.282;10.078;2024-02-21T08:05:26;27.65;;;6.40;;
20073;SDS011;10197;54.282;10.078;2024-02-21T08:07:57;26.58;;;6.80;;
20073;SDS011;10197;54.282;10.078;2024-02-21T08:10:24;28.27;;;6.88;;
20073;SDS011;10197;54.282;10.078;2024-02-21T08:12:51;29.20;;;7.03;;
20073;SDS011;10197;54.282;10.078;2024-02-21T08:15:18;26.52;;;6.60;;
20073;SDS011;10197;54.282;10.078;2024-02-21T08:17:49;32.05;;;7.22;;
20073;SDS011;10197;54.282;10.078;2024-02-21T08:20:16;22.95;;;7.18;;
20073;SDS011;10197;54.282;10.078;2024-02-21T08:22:43;32.80;;;6.72;;
20073;SDS011;10197;54.282;10.078;2024-02-21T08:25:11;26.92;;;7.13;;
20073;SDS011;10197;54.282;10.078;2024-02-21T08:27:40;26.38;;;6.32;;
20073;SDS011;10197;54.282;10.078;2024-02-21T08:30:08;25.40;;;6.90;;
20073;SDS011;10197;54.282;10.078;2024-02-21T08:32:36;24.98;;;6.95;;
20073;SDS011;10197;54.282;10.078;2024-02-21T08:35:03;29.60;;;6.47;;
20073;SDS011;10197;54.282;10.078;2024-02-21T08:37:32;28.20;;;6.03;;
20073;SDS011;10197;54.282;10.078;2024-02-21T08:39:58;30.83;;;6.53;;
20073;SDS011;10197;54.282;10.078;2024-02-21T08:42:33;28.58;;;7.43;;
20073;SDS011;10197;54.282;10.078;2024-02-21T08:45:00;23.92;;;6.22;;
20073;SDS011;10197;54.282;10.078;2024-02-21T08:47:27;26.25;;;6.50;;
20073;SDS011;10197;54.282;10.078;2024-02-21T08:49:53;36.90;;;7.47;;
20073;SDS011;10197;54.282;10.078;2024-02-21T08:52:20;21.38;;;6.60;;
20073;SDS011;10197;54.282;10.078;2024-02-21T08:54:47;39.20;;;7.10;;
20073;SDS011;10197;54.282;10.078;2024-02-21T08:57:13;29.05;;;5.97;;
20073;SDS011;10197;54.282;10.078;2024-02-21T08:59:42;22.27;;;6.00;;
20073;SDS011;10197;54.282;10.078;2024-02-21T09:02:09;24.13;;;5.95;;
20073;SDS011;10197;54.282;10.078;2024-02-21T09:04:35;30.98;;;6.32;;
20073;SDS011;10197;54.282;10.078;2024-02-21T09:07:02;31.15;;;6.82;;
20073;SDS011;10197;54.282;10.078;2024-02-21T09:09:29;26.63;;;6.00;;
20073;SDS011;10197;54.282;10.078;2024-02-21T09:11:58;20.77;;;6.10;;
20073;SDS011;10197;54.282;10.078;2024-02-21T09:14:30;31.92;;;6.22;;
20073;SDS011;10197;54.282;10.078;2024-02-21T09:16:58;30.27;;;6.75;;
20073;SDS011;10197;54.282;10.078;2024-02-21T09:19:25;24.52;;;5.95;;
20073;SDS011;10197;54.282;10.078;2024-02-21T09:21:52;25.50;;;5.28;;
20073;SDS011;10197;54.282;10.078;2024-02-21T09:24:18;27.08;;;6.05;;
20073;SDS011;10197;54.282;10.078;2024-02-21T09:26:45;23.20;;;6.10;;
20073;SDS011;10197;54.282;10.078;2024-02-21T09:29:12;29.88;;;6.82;;
20073;SDS011;10197;54.282;10.078;2024-02-21T09:31:40;23.98;;;6.57;;
20073;SDS011;10197;54.282;10.078;2024-02-21T09:34:08;19.38;;;6.05;;
20073;SDS011;10197;54.282;10.078;2024-02-21T09:36:36;20.48;;;5.80;;
20073;SDS011;10197;54.282;10.078;2024-02-21T09:39:03;19.55;;;5.32;;
20073;SDS011;10197;54.282;10.078;2024-02-21T09:41:30;24.85;;;6.32;;
20073;SDS011;10197;54.282;10.078;2024-02-21T09:43:57;28.67;;;7.18;;
20073;SDS011;10197;54.282;10.078;2024-02-21T09:46:24;24.33;;;6.28;;
20073;SDS011;10197;54.282;10.078;2024-02-21T09:48:59;21.50;;;6.50;;
20073;SDS011;10197;54.282;10.078;2024-02-21T09:51:32;21.77;;;6.82;;
20073;SDS011;10197;54.282;10.078;2024-02-21T09:53:59;16.73;;;5.38;;
20073;SDS011;10197;54.282;10.078;2024-02-21T09:56:26;25.20;;;5.47;;
20073;SDS011;10197;54.282;10.078;2024-02-21T09:58:53;26.75;;;5.90;;
20073;SDS011;10197;54.282;10.078;2024-02-21T10:01:19;21.17;;;5.47;;
20073;SDS011;10197;54.282;10.078;2024-02-21T10:03:46;19.63;;;5.68;;
20073;SDS011;10197;54.282;10.078;2024-02-21T10:06:13;22.88;;;6.00;;
20073;SDS011;10197;54.282;10.078;2024-02-21T10:08:41;27.02;;;6.28;;
20073;SDS011;10197;54.282;10.078;2024-02-21T10:11:08;20.85;;;5.47;;
20073;SDS011;10197;54.282;10.078;2024-02-21T10:13:35;19.60;;;5.53;;
20073;SDS011;10197;54.282;10.078;2024-02-21T10:16:04;18.02;;;5.65;;
20073;SDS011;10197;54.282;10.078;2024-02-21T10:18:31;23.63;;;7.07;;
20073;SDS011;10197;54.282;10.078;2024-02-21T10:21:01;19.70;;;6.78;;
20073;SDS011;10197;54.282;10.078;2024-02-21T10:23:29;24.35;;;5.97;;
20073;SDS011;10197;54.282;10.078;2024-02-21T10:26:05;16.02;;;5.93;;
20073;SDS011;10197;54.282;10.078;2024-02-21T10:28:33;25.83;;;6.18;;
20073;SDS011;10197;54.282;10.078;2024-02-21T10:31:00;19.80;;;5.47;;
20073;SDS011;10197;54.282;10.078;2024-02-21T10:33:26;23.83;;;6.00;;
20073;SDS011;10197;54.282;10.078;2024-02-21T10:35:55;23.00;;;5.95;;
20073;SDS011;10197;54.282;10.078;2024-02-21T10:38:33;20.83;;;6.05;;
20073;SDS011;10197;54.282;10.078;2024-02-21T10:40:59;27.17;;;6.25;;
20073;SDS011;10197;54.282;10.078;2024-02-21T10:43:30;22.70;;;6.18;;
20073;SDS011;10197;54.282;10.078;2024-02-21T10:46:00;19.75;;;5.93;;
20073;SDS011;10197;54.282;10.078;2024-02-21T10:48:31;15.73;;;5.43;;
20073;SDS011;10197;54.282;10.078;2024-02-21T10:51:03;20.23;;;5.57;;
20073;SDS011;10197;54.282;10.078;2024-02-21T10:53:40;14.50;;;5.40;;
20073;SDS011;10197;54.282;10.078;2024-02-21T10:56:15;20.98;;;7.10;;
20073;SDS011;10197;54.282;10.078;2024-02-21T10:58:47;23.10;;;7.00;;
20073;SDS011;10197;54.282;10.078;2024-02-21T11:01:14;16.48;;;5.93;;
20073;SDS011;10197;54.282;10.078;2024-02-21T11:03:43;17.73;;;6.18;;
20073;SDS011;10197;54.282;10.078;2024-02-21T11:06:11;14.82;;;5.50;;
20073;SDS011;10197;54.282;10.078;2024-02-21T11:08:38;16.80;;;5.60;;
20073;SDS011;10197;54.282;10.078;2024-02-21T11:11:06;22.67;;;6.40;;
20073;SDS011;10197;54.282;10.078;2024-02-21T11:13:34;19.80;;;5.80;;
20073;SDS011;10197;54.282;10.078;2024-02-21T11:16:10;17.40;;;5.53;;
20073;SDS011;10197;54.282;10.078;2024-02-21T11:18:37;18.58;;;5.85;;
20073;SDS011;10197;54.282;10.078;2024-02-21T11:21:04;16.63;;;6.00;;
20073;SDS011;10197;54.282;10.078;2024-02-21T11:23:31;16.60;;;5.85;;
20073;SDS011;10197;54.282;10.078;2024-02-21T11:26:06;22.70;;;5.85;;
20073;SDS011;10197;54.282;10.078;2024-02-21T11:28:33;18.52;;;5.65;;
20073;SDS011;10197;54.282;10.078;2024-02-21T11:31:06;22.42;;;5.95;;
20073;SDS011;10197;54.282;10.078;2024-02-21T11:33:35;22.00;;;6.07;;
20073;SDS011;10197;54.282;10.078;2024-02-21T11:36:02;13.77;;;6.47;;
20073;SDS011;10197;54.282;10.078;2024-02-21T11:38:29;20.83;;;6.15;;
20073;SDS011;10197;54.282;10.078;2024-02-21T11:40:56;19.02;;;5.80;;
20073;SDS011;10197;54.282;10.078;2024-02-21T11:43:23;15.80;;;6.43;;
20073;SDS011;10197;54.282;10.078;2024-02-21T11:45:50;17.52;;;6.45;;
20073;SDS011;10197;54.282;10.078;2024-02-21T11:48:17;21.83;;;7.38;;
20073;SDS011;10197;54.282;10.078;2024-02-21T11:50:53;15.25;;;5.60;;
20073;SDS011;10197;54.282;10.078;2024-02-21T11:53:21;16.35;;;5.75;;
20073;SDS011;10197;54.282;10.078;2024-02-21T11:55:48;20.23;;;6.82;;
20073;SDS011;10197;54.282;10.078;2024-02-21T11:58:15;19.90;;;6.15;;
20073;SDS011;10197;54.282;10.078;2024-02-21T12:00:42;11.82;;;5.38;;
20073;SDS011;10197;54.282;10.078;2024-02-21T12:03:09;16.45;;;6.18;;
20073;SDS011;10197;54.282;10.078;2024-02-21T12:05:36;13.73;;;6.22;;
20073;SDS011;10197;54.282;10.078;2024-02-21T12:08:05;14.90;;;6.05;;
20073;SDS011;10197;54.282;10.078;2024-02-21T12:10:33;17.95;;;7.38;;
20073;SDS011;10197;54.282;10.078;2024-02-21T12:13:07;18.88;;;6.70;;
20073;SDS011;10197;54.282;10.078;2024-02-21T12:15:34;21.85;;;6.70;;
20073;SDS011;10197;54.282;10.078;2024-02-21T12:18:01;15.77;;;6.65;;
20073;SDS011;10197;54.282;10.078;2024-02-21T12:20:28;16.73;;;6.38;;
20073;SDS011;10197;54.282;10.078;2024-02-21T12:22:56;13.93;;;6.13;;
20073;SDS011;10197;54.282;10.078;2024-02-21T12:25:25;11.20;;;5.97;;
20073;SDS011;10197;54.282;10.078;2024-02-21T12:27:53;20.02;;;7.22;;
20073;SDS011;10197;54.282;10.078;2024-02-21T12:30:21;17.58;;;6.32;;
20073;SDS011;10197;54.282;10.078;2024-02-21T12:32:48;13.65;;;6.75;;
20073;SDS011;10197;54.282;10.078;2024-02-21T12:35:14;12.60;;;6.85;;
20073;SDS011;10197;54.282;10.078;2024-02-21T12:37:42;10.27;;;6.93;;
20073;SDS011;10197;54.282;10.078;2024-02-21T12:40:09;13.52;;;7.80;;
20073;SDS011;10197;54.282;10.078;2024-02-21T12:42:39;13.13;;;7.10;;
20073;SDS011;10197;54.282;10.078;2024-02-21T12:45:06;9.40;;;6.32;;
20073;SDS011;10197;54.282;10.078;2024-02-21T12:47:34;11.55;;;6.75;;
20073;SDS011;10197;54.282;10.078;2024-02-21T12:50:00;12.77;;;7.13;;
20073;SDS011;10197;54.282;10.078;2024-02-21T12:52:28;12.48;;;8.07;;
20073;SDS011;10197;54.282;10.078;2024-02-21T12:54:55;13.85;;;8.00;;
20073;SDS011;10197;54.282;10.078;2024-02-21T12:57:24;12.63;;;8.88;;
20073;SDS011;10197;54.282;10.078;2024-02-21T12:59:52;11.20;;;8.55;;
20073;SDS011;10197;54.282;10.078;2024-02-21T13:02:19;14.05;;;9.27;;
20073;SDS011;10197;54.282;10.078;2024-02-21T13:04:46;11.35;;;9.00;;
20073;SDS011;10197;54.282;10.078;2024-02-21T13:07:13;12.25;;;8.23;;
20073;SDS011;10197;54.282;10.078;2024-02-21T13:09:39;12.88;;;8.25;;
20073;SDS011;10197;54.282;10.078;2024-02-21T13:12:07;13.35;;;7.80;;
20073;SDS011;10197;54.282;10.078;2024-02-21T13:14:34;11.23;;;7.10;;
20073;SDS011;10197;54.282;10.078;2024-02-21T13:17:03;8.85;;;7.95;;
20073;SDS011;10197;54.282;10.078;2024-02-21T13:19:30;10.93;;;8.13;;
20073;SDS011;10197;54.282;10.078;2024-02-21T13:21:57;8.52;;;7.68;;
20073;SDS011;10197;54.282;10.078;2024-02-21T13:24:23;8.70;;;7.78;;
20073;SDS011;10197;54.282;10.078;2024-02-21T13:26:50;7.90;;;7.20;;
20073;SDS011;10197;54.282;10.078;2024-02-21T13:29:17;9.02;;;8.00;;
20073;SDS011;10197;54.282;10.078;2024-02-21T13:31:45;9.93;;;7.93;;
20073;SDS011;10197;54.282;10.078;2024-02-21T13:34:13;10.68;;;8.95;;
20073;SDS011;10197;54.282;10.078;2024-02-21T13:36:40;10.63;;;9.32;;
20073;SDS011;10197;54.282;10.078;2024-02-21T13:39:07;16.05;;;10.10;;
20073;SDS011;10197;54.282;10.078;2024-02-21T13:41:38;11.88;;;8.95;;
20073;SDS011;10197;54.282;10.078;2024-02-21T13:44:04;14.73;;;9.88;;
20073;SDS011;10197;54.282;10.078;2024-02-21T13:46:31;13.88;;;9.93;;
20073;SDS011;10197;54.282;10.078;2024-02-21T13:49:02;13.60;;;9.07;;
20073;SDS011;10197;54.282;10.078;2024-02-21T13:51:33;11.50;;;9.50;;
20073;SDS011;10197;54.282;10.078;2024-02-21T13:54:01;14.02;;;10.55;;
20073;SDS011;10197;54.282;10.078;2024-02-21T13:56:28;14.07;;;10.77;;
20073;SDS011;10197;54.282;10.078;2024-02-21T13:58:54;13.85;;;11.00;;
20073;SDS011;10197;54.282;10.078;2024-02-21T14:01:21;13.95;;;9.73;;
20073;SDS011;10197;54.282;10.078;2024-02-21T14:03:48;15.82;;;11.07;;
20073;SDS011;10197;54.282;10.078;2024-02-21T14:06:15;15.93;;;12.50;;
20073;SDS011;10197;54.282;10.078;2024-02-21T14:08:43;18.67;;;12.63;;
20073;SDS011;10197;54.282;10.078;2024-02-21T14:11:10;18.48;;;12.32;;
20073;SDS011;10197;54.282;10.078;2024-02-21T14:13:37;18.90;;;13.45;;
20073;SDS011;10197;54.282;10.078;2024-02-21T14:16:08;15.98;;;12.45;;
20073;SDS011;10197;54.282;10.078;2024-02-21T14:18:36;16.63;;;12.60;;
20073;SDS011;10197;54.282;10.078;2024-02-21T14:21:03;18.17;;;13.32;;
20073;SDS011;10197;54.282;10.078;2024-02-21T14:23:30;18.52;;;13.30;;
20073;SDS011;10197;54.282;10.078;2024-02-21T14:26:00;21.15;;;14.15;;
20073;SDS011;10197;54.282;10.078;2024-02-21T14:28:27;17.65;;;13.40;;